Terminal Aerodrome Forecast
Issued by NWS Cleveland, OH

Home | Current Version | Previous Version | Graphics & Text | Print | Product List | Glossary On
Versions: 1 2 3 4 5 6 7 8 9 10 11 12 13 14 15 16 17
000
FTUS41 KCLE 200500
TAFCAK
TAF
KCAK 200528Z 2006/2106 19007KT P6SM BKN140
     FM201400 20012G18KT P6SM VCSH BKN080 OVC120
     FM202100 21012G18KT 5SM -SHRA BKN025 OVC040
     FM210500 26007KT 3SM -SHRA BR BKN010 OVC025=

USA.gov is the U.S. government's official web portal to all federal, state and local government web resources and services.